createdAt,value
2018-05-02T00:00:54.936Z,0.00
2018-05-02T00:01:33.937Z,0.00
2018-05-02T00:02:54.930Z,0.00
2018-05-02T00:03:33.933Z,0.00
2018-05-02T00:04:34.429Z,0.00
2018-05-02T00:05:34.426Z,0.00
2018-05-02T00:09:36.941Z,0.00
2018-05-02T00:11:20.305Z,0.00
2018-05-02T00:13:37.800Z,0.00
2018-05-02T00:14:38.782Z,0.00
2018-05-02T00:15:37.814Z,0.00
2018-05-02T00:16:38.309Z,0.00
2018-05-02T00:17:38.307Z,0.00
2018-05-02T00:18:38.310Z,0.00
2018-05-02T00:19:38.307Z,0.00
2018-05-02T00:24:02.978Z,0.00
2018-05-02T00:25:02.983Z,0.00
2018-05-02T00:25:41.985Z,0.00
2018-05-02T00:26:42.491Z,0.00
2018-05-02T00:28:04.416Z,0.00
2018-05-02T00:28:44.491Z,0.00
2018-05-02T00:29:42.485Z,0.00
2018-05-02T00:32:28.236Z,0.00
2018-05-02T00:33:14.243Z,0.00
2018-05-02T00:34:13.716Z,0.00
2018-05-02T00:35:14.739Z,0.00
2018-05-02T00:37:46.112Z,0.00
2018-05-02T00:38:46.120Z,0.00
2018-05-02T00:39:46.123Z,0.00
2018-05-02T00:41:00.658Z,0.00
2018-05-02T00:41:46.619Z,0.00
2018-05-02T00:42:46.594Z,0.00
2018-05-02T00:43:46.619Z,0.00
2018-05-02T00:44:46.619Z,0.00
2018-05-02T00:47:18.375Z,0.00
2018-05-02T00:48:18.384Z,0.00
2018-05-02T00:49:18.394Z,0.00
2018-05-02T00:53:21.591Z,0.00
2018-05-02T00:54:21.570Z,0.00
2018-05-02T00:55:21.566Z,0.00
2018-05-02T00:57:53.306Z,0.00
2018-05-02T00:58:53.313Z,0.00
2018-05-02T00:59:53.311Z,0.00
2018-05-02T01:00:52.929Z,0.00
2018-05-02T01:02:07.813Z,0.00
2018-05-02T01:02:53.811Z,0.00
2018-05-02T01:03:53.818Z,0.00
2018-05-02T01:04:54.312Z,0.00
2018-05-02T01:05:54.313Z,0.00
2018-05-02T01:06:54.313Z,0.00
2018-05-02T01:07:54.313Z,0.00
2018-05-02T01:09:15.809Z,0.00
2018-05-02T01:09:54.035Z,0.00
2018-05-02T01:10:54.812Z,0.00
2018-05-02T01:11:54.813Z,0.00
2018-05-02T01:12:55.321Z,0.00
2018-05-02T01:13:55.319Z,0.00
2018-05-02T01:14:55.312Z,0.00
2018-05-02T01:15:55.311Z,0.00
2018-05-02T01:16:55.810Z,0.00
2018-05-02T01:17:55.810Z,0.00
2018-05-02T01:18:55.154Z,0.00
2018-05-02T01:19:55.810Z,0.00
2018-05-02T01:20:58.314Z,0.00
2018-05-02T01:21:56.310Z,0.00
2018-05-02T01:22:56.310Z,0.00
2018-05-02T01:23:56.320Z,0.00
2018-05-02T01:26:28.560Z,0.00
2018-05-02T01:27:27.909Z,0.00
2018-05-02T01:30:00.139Z,0.00
2018-05-02T01:31:21.147Z,0.00
2018-05-02T01:32:00.147Z,0.00
2018-05-02T01:33:01.582Z,0.00
2018-05-02T01:35:53.012Z,0.00
2018-05-02T01:36:32.017Z,0.00
2018-05-02T01:37:32.020Z,0.00
2018-05-02T01:38:32.516Z,0.00
2018-05-02T01:39:34.517Z,0.00
2018-05-02T01:40:53.546Z,0.00
2018-05-02T01:41:32.515Z,0.00
2018-05-02T01:42:33.016Z,0.00
2018-05-02T01:43:33.017Z,0.00
2018-05-02T01:44:33.017Z,0.00
2018-05-02T01:45:33.019Z,0.00
2018-05-02T01:46:35.522Z,0.00
2018-05-02T01:47:32.738Z,0.00
2018-05-02T01:48:34.543Z,0.00
2018-05-02T01:49:33.515Z,0.00
2018-05-02T01:50:33.515Z,0.00
2018-05-02T01:51:33.110Z,0.00
2018-05-02T01:52:34.015Z,0.00
2018-05-02T01:53:34.038Z,0.00
2018-05-02T01:54:34.015Z,0.00
2018-05-02T01:55:55.519Z,0.00
2018-05-02T01:56:34.515Z,0.00
2018-05-02T01:57:35.994Z,0.00
2018-05-02T01:58:34.514Z,0.00
2018-05-02T02:01:12.255Z,0.00
2018-05-02T02:02:06.263Z,0.00
2018-05-02T02:03:06.257Z,0.00
2018-05-02T02:04:27.764Z,0.00
2018-05-02T02:06:38.137Z,0.00
2018-05-02T02:07:38.146Z,0.00
2018-05-02T02:08:38.169Z,0.00
2018-05-02T02:09:40.078Z,0.00
2018-05-02T02:10:40.100Z,0.00
2018-05-02T02:11:38.644Z,0.00
2018-05-02T02:12:38.645Z,0.00
2018-05-02T02:13:40.116Z,0.00
2018-05-02T02:16:10.384Z,0.00
2018-05-02T02:17:10.389Z,0.00
2018-05-02T02:18:10.389Z,0.00
2018-05-02T02:19:10.889Z,0.00
2018-05-02T02:22:03.286Z,0.00
2018-05-02T02:22:43.292Z,0.00
2018-05-02T02:23:42.301Z,0.00
2018-05-02T02:26:35.541Z,0.00
2018-05-02T02:27:20.556Z,0.00
2018-05-02T02:28:14.550Z,0.00
2018-05-02T02:29:16.480Z,0.00
2018-05-02T02:30:15.052Z,0.00
2018-05-02T02:31:15.056Z,0.00
2018-05-02T02:33:46.697Z,0.00
2018-05-02T02:34:46.694Z,0.00
2018-05-02T02:35:46.694Z,0.00
2018-05-02T02:37:08.204Z,0.00
2018-05-02T02:38:08.194Z,0.00
2018-05-02T02:38:47.192Z,0.00
2018-05-02T02:39:47.194Z,0.00
2018-05-02T02:40:47.703Z,0.00
2018-05-02T02:42:07.890Z,0.00
2018-05-02T02:42:47.698Z,0.00
2018-05-02T02:43:47.693Z,0.00
2018-05-02T02:44:47.692Z,0.00
2018-05-02T02:47:42.386Z,0.00
2018-05-02T02:48:19.450Z,0.00
2018-05-02T02:49:19.449Z,0.00
2018-05-02T02:51:51.207Z,0.00
2018-05-02T02:54:22.701Z,0.00
2018-05-02T02:55:22.781Z,0.00
2018-05-02T02:56:22.710Z,0.00
2018-05-02T02:57:37.208Z,0.00
2018-05-02T02:59:54.575Z,0.00
2018-05-02T03:00:54.585Z,0.00
2018-05-02T03:01:54.593Z,0.00
2018-05-02T03:02:55.084Z,0.00
2018-05-02T03:03:55.084Z,0.00
2018-05-02T03:04:55.085Z,0.00
2018-05-02T03:05:55.083Z,0.00
2018-05-02T03:06:54.675Z,0.00
2018-05-02T03:07:55.583Z,0.00
2018-05-02T03:08:55.583Z,0.00
2018-05-02T03:09:55.583Z,0.00
2018-05-02T03:10:55.200Z,0.00
2018-05-02T03:11:57.085Z,0.00
2018-05-02T03:12:56.083Z,0.00
2018-05-02T03:13:56.082Z,0.00
2018-05-02T03:14:56.590Z,0.00
2018-05-02T03:15:56.585Z,0.00
2018-05-02T03:17:17.582Z,0.00
2018-05-02T03:17:56.055Z,0.00
2018-05-02T03:19:17.125Z,0.00
2018-05-02T03:19:57.079Z,0.00
2018-05-02T03:21:18.082Z,0.00
2018-05-02T03:21:57.092Z,0.00
2018-05-02T03:22:57.080Z,0.00
2018-05-02T03:24:17.651Z,0.00
2018-05-02T03:24:56.748Z,0.00
2018-05-02T03:25:58.548Z,0.00
2018-05-02T03:26:57.534Z,4.00
2018-05-02T03:27:57.580Z,0.00
2018-05-02T03:28:57.580Z,0.00
2018-05-02T03:29:58.080Z,4.00
2018-05-02T03:30:58.076Z,4.00
2018-05-02T03:31:59.535Z,4.00
2018-05-02T03:32:58.087Z,4.00
2018-05-02T03:33:58.077Z,4.00
2018-05-02T03:34:58.579Z,8.00
2018-05-02T03:35:58.585Z,8.00
2018-05-02T03:36:58.618Z,8.00
2018-05-02T03:38:23.519Z,12.00
2018-05-02T03:39:01.511Z,12.00
2018-05-02T03:39:59.079Z,12.00
2018-05-02T03:40:58.420Z,16.00
2018-05-02T03:42:02.510Z,20.00
2018-05-02T03:42:59.578Z,20.00
2018-05-02T03:43:59.582Z,24.00
2018-05-02T03:45:20.578Z,28.00
2018-05-02T03:46:00.534Z,28.00
2018-05-02T03:46:59.114Z,32.00
2018-05-02T03:48:21.077Z,36.00
2018-05-02T03:49:00.077Z,40.00
2018-05-02T03:49:59.441Z,44.00
2018-05-02T03:51:00.079Z,48.00
2018-05-02T03:53:52.823Z,64.00
2018-05-02T03:54:33.291Z,68.00
2018-05-02T03:55:31.284Z,72.00
2018-05-02T03:56:53.325Z,84.00
2018-05-02T03:57:53.325Z,88.00
2018-05-02T03:58:33.804Z,100.00
2018-05-02T03:59:32.339Z,108.00
2018-05-02T04:00:34.324Z,116.00
2018-05-02T04:03:04.004Z,156.00
2018-05-02T04:04:04.943Z,168.00
2018-05-02T04:05:04.014Z,188.00
2018-05-02T04:06:04.516Z,204.00
2018-05-02T04:07:04.510Z,224.00
2018-05-02T04:08:04.511Z,244.00
2018-05-02T04:09:04.511Z,256.00
2018-05-02T04:10:04.169Z,272.00
2018-05-02T04:11:05.017Z,280.00
2018-05-02T04:12:05.010Z,304.00
2018-05-02T04:13:05.010Z,324.00
2018-05-02T04:14:05.511Z,348.00
2018-05-02T04:15:07.452Z,372.00
2018-05-02T04:16:05.510Z,392.00
2018-05-02T04:17:05.513Z,404.00
2018-05-02T04:18:05.514Z,420.00
2018-05-02T04:19:27.009Z,440.00
2018-05-02T04:20:06.009Z,460.00
2018-05-02T04:21:07.442Z,480.00
2018-05-02T04:22:06.014Z,504.00
2018-05-02T04:23:07.458Z,520.00
2018-05-02T04:24:06.509Z,548.00
2018-05-02T04:25:27.509Z,588.00
2018-05-02T04:26:28.440Z,632.00
2018-05-02T04:27:27.520Z,668.00
2018-05-02T04:28:06.509Z,704.00
2018-05-02T04:29:21.506Z,720.00
2018-05-02T04:31:38.272Z,716.00
2018-05-02T04:32:37.615Z,724.00
2018-05-02T04:33:38.284Z,736.00
2018-05-02T04:34:38.280Z,740.00
2018-05-02T04:35:38.781Z,744.00
2018-05-02T04:36:38.780Z,756.00
2018-05-02T04:39:37.269Z,800.00
2018-05-02T04:40:10.271Z,828.00
2018-05-02T04:41:09.824Z,852.00
2018-05-02T04:42:10.767Z,884.00
2018-05-02T04:43:10.771Z,920.00
2018-05-02T04:44:10.782Z,948.00
2018-05-02T04:45:10.771Z,972.00
2018-05-02T04:46:11.271Z,984.00
2018-05-02T04:47:11.300Z,984.00
2018-05-02T04:48:11.270Z,992.00
2018-05-02T04:49:11.270Z,1000.00
2018-05-02T04:50:14.202Z,1032.00
2018-05-02T04:51:32.770Z,1024.00
2018-05-02T04:52:11.765Z,1024.00
2018-05-02T04:53:11.768Z,1012.00
2018-05-02T04:54:12.269Z,996.00
2018-05-02T04:55:12.269Z,980.00
2018-05-02T04:56:12.269Z,976.00
2018-05-02T04:57:12.269Z,1000.00
2018-05-02T04:58:34.767Z,1008.00
2018-05-02T04:59:35.828Z,1056.00
2018-05-02T05:00:39.770Z,1108.00
2018-05-02T05:01:33.768Z,1152.00
2018-05-02T05:02:35.230Z,1172.00
2018-05-02T05:03:13.269Z,1196.00
2018-05-02T05:04:13.275Z,1224.00
2018-05-02T05:05:12.735Z,1228.00
2018-05-02T05:07:45.485Z,1248.00
2018-05-02T05:08:45.491Z,1296.00
2018-05-02T05:09:45.491Z,1260.00
2018-05-02T05:10:46.067Z,1272.00
2018-05-02T05:11:45.991Z,1288.00
2018-05-02T05:14:38.376Z,1356.00
2018-05-02T05:15:17.384Z,1384.00
2018-05-02T05:16:17.383Z,1396.00
2018-05-02T05:18:49.644Z,1440.00
2018-05-02T05:20:11.631Z,1484.00
2018-05-02T05:20:53.072Z,1532.00
2018-05-02T05:23:21.324Z,1752.00
2018-05-02T05:24:22.785Z,1808.00
2018-05-02T05:25:21.329Z,1816.00
2018-05-02T05:26:21.330Z,1820.00
2018-05-02T05:27:42.830Z,1808.00
2018-05-02T05:29:54.696Z,1752.00
2018-05-02T05:30:52.546Z,1724.00
2018-05-02T05:32:13.663Z,1760.00
2018-05-02T05:32:53.704Z,1744.00
2018-05-02T05:35:24.955Z,1644.00
2018-05-02T05:36:24.967Z,1648.00
2018-05-02T05:37:24.961Z,1724.00
2018-05-02T05:38:25.463Z,1780.00
2018-05-02T05:39:24.687Z,1804.00
2018-05-02T05:40:25.464Z,1732.00
2018-05-02T05:41:25.526Z,1684.00
2018-05-02T05:42:46.962Z,1692.00
2018-05-02T05:43:25.959Z,1736.00
2018-05-02T05:44:25.969Z,1764.00
2018-05-02T05:45:25.962Z,1752.00
2018-05-02T05:46:25.980Z,1740.00
2018-05-02T05:47:26.463Z,1760.00
2018-05-02T05:48:32.461Z,1832.00
2018-05-02T05:49:26.462Z,1932.00
2018-05-02T05:50:26.469Z,2008.00
2018-05-02T05:52:59.680Z,1956.00
2018-05-02T05:54:12.331Z,2128.00
2018-05-02T05:54:58.254Z,2028.00
2018-05-02T05:55:58.747Z,2056.00
2018-05-02T05:57:19.746Z,2124.00
2018-05-02T05:58:20.745Z,2240.00
2018-05-02T05:59:25.185Z,2348.00
2018-05-02T06:00:19.317Z,2452.00
2018-05-02T06:00:58.415Z,2564.00
2018-05-02T06:01:59.456Z,2916.00
2018-05-02T06:03:20.251Z,2764.00
2018-05-02T06:03:59.250Z,2992.00
2018-05-02T06:04:59.748Z,3104.00
2018-05-02T06:06:20.747Z,3152.00
2018-05-02T06:07:02.679Z,3236.00
2018-05-02T06:08:20.746Z,3260.00
2018-05-02T06:09:21.247Z,3108.00
2018-05-02T06:10:21.245Z,3196.00
2018-05-02T06:11:21.246Z,3184.00
2018-05-02T06:12:00.244Z,3264.00
2018-05-02T06:13:23.253Z,3296.00
2018-05-02T06:14:00.746Z,3472.00
2018-05-02T06:15:21.748Z,3272.00
2018-05-02T06:16:00.220Z,3248.00
2018-05-02T06:17:01.279Z,3300.00
2018-05-02T06:18:02.220Z,3136.00
2018-05-02T06:19:01.325Z,3048.00
2018-05-02T06:20:00.528Z,2972.00
2018-05-02T06:21:01.245Z,2852.00
2018-05-02T06:22:22.245Z,2836.00
2018-05-02T06:23:22.749Z,2848.00
2018-05-02T06:24:22.747Z,2860.00
2018-05-02T06:25:03.745Z,2856.00
2018-05-02T06:26:23.746Z,2948.00
2018-05-02T06:27:22.331Z,3032.00
2018-05-02T06:28:02.244Z,3052.00
2018-05-02T06:29:01.584Z,3020.00
2018-05-02T06:30:02.250Z,3028.00
2018-05-02T06:31:23.745Z,3136.00
2018-05-02T06:32:02.752Z,3264.00
2018-05-02T06:33:25.752Z,3320.00
2018-05-02T06:34:02.744Z,3496.00
2018-05-02T06:35:03.244Z,3160.00
2018-05-02T06:36:03.262Z,2920.00
2018-05-02T06:37:25.241Z,2852.00
2018-05-02T06:38:02.715Z,2896.00
2018-05-02T06:39:17.758Z,2724.00
2018-05-02T06:40:02.972Z,2768.00
2018-05-02T06:41:03.743Z,2904.00
2018-05-02T06:42:03.748Z,2832.00
2018-05-02T06:44:35.498Z,3060.00
2018-05-02T06:45:41.511Z,2880.00
2018-05-02T06:46:49.506Z,2844.00
2018-05-02T06:47:35.162Z,2956.00
2018-05-02T06:50:07.421Z,2848.00
2018-05-02T06:51:28.388Z,2800.00
2018-05-02T06:52:34.423Z,2788.00
2018-05-02T06:53:34.932Z,2772.00
2018-05-02T06:54:21.918Z,2856.00
2018-05-02T06:55:32.385Z,2588.00
2018-05-02T06:56:21.923Z,2568.00
2018-05-02T06:57:07.543Z,2544.00
2018-05-02T06:58:29.417Z,2492.00
2018-05-02T07:00:39.867Z,2500.00
2018-05-02T07:02:02.405Z,2828.00
2018-05-02T07:02:39.937Z,2640.00
2018-05-02T07:03:39.555Z,2588.00
2018-05-02T07:04:46.439Z,2656.00
2018-05-02T07:05:43.431Z,2668.00
2018-05-02T07:07:00.885Z,2796.00
2018-05-02T07:07:43.457Z,2868.00
2018-05-02T07:09:01.947Z,3052.00
2018-05-02T07:09:43.367Z,3084.00
2018-05-02T07:11:01.255Z,3452.00
2018-05-02T07:11:42.411Z,3520.00
2018-05-02T07:12:49.871Z,3440.00
2018-05-02T07:14:02.500Z,3728.00
2018-05-02T07:14:41.455Z,3724.00
2018-05-02T07:17:12.325Z,4084.00
2018-05-02T07:18:13.091Z,4004.00
2018-05-02T07:20:58.772Z,4376.00
2018-05-02T07:22:06.757Z,4840.00
2018-05-02T07:22:46.759Z,4892.00
2018-05-02T07:23:45.258Z,4612.00
2018-05-02T07:24:47.191Z,4320.00
2018-05-02T07:25:45.259Z,4516.00
2018-05-02T07:26:45.286Z,4516.00
2018-05-02T07:29:18.478Z,4820.00
2018-05-02T07:30:18.979Z,4676.00
2018-05-02T07:31:17.061Z,4628.00
2018-05-02T07:32:31.597Z,4468.00
2018-05-02T07:34:48.185Z,4900.00
2018-05-02T07:35:52.373Z,4748.00
2018-05-02T07:36:48.938Z,4908.00
2018-05-02T07:37:48.537Z,4880.00
2018-05-02T07:38:49.444Z,5044.00
2018-05-02T07:39:49.440Z,5036.00
2018-05-02T07:41:10.440Z,5080.00
2018-05-02T07:43:22.135Z,5260.00
2018-05-02T07:44:43.659Z,5036.00
2018-05-02T07:46:53.758Z,5128.00
2018-05-02T07:47:54.794Z,5184.00
2018-05-02T07:48:57.226Z,5184.00
2018-05-02T07:51:24.542Z,4592.00
2018-05-02T07:52:46.548Z,5228.00
2018-05-02T07:53:30.548Z,4908.00
2018-05-02T07:54:54.024Z,5160.00
2018-05-02T07:55:25.054Z,6040.00
2018-05-02T07:57:58.004Z,5240.00
2018-05-02T07:58:56.030Z,5192.00
2018-05-02T08:00:17.118Z,5284.00
2018-05-02T08:00:57.067Z,5372.00
2018-05-02T08:01:56.292Z,5272.00
2018-05-02T08:03:18.067Z,5528.00
2018-05-02T08:04:11.067Z,5340.00
2018-05-02T08:08:01.492Z,5592.00
2018-05-02T08:09:00.564Z,5480.00
2018-05-02T08:10:00.559Z,5492.00
2018-05-02T08:11:01.146Z,5788.00
2018-05-02T08:12:01.062Z,5728.00
2018-05-02T08:13:01.084Z,5744.00
2018-05-02T08:14:01.060Z,5600.00
2018-05-02T08:15:07.560Z,5468.00
2018-05-02T08:16:00.785Z,5292.00
2018-05-02T08:17:22.571Z,5356.00
2018-05-02T08:18:02.555Z,5320.00
2018-05-02T08:19:23.063Z,5492.00
2018-05-02T08:20:04.059Z,5596.00
2018-05-02T08:21:24.493Z,5740.00
2018-05-02T08:22:02.114Z,5944.00
2018-05-02T08:24:40.323Z,6304.00
2018-05-02T08:27:07.676Z,6004.00
2018-05-02T08:28:05.708Z,5964.00
2018-05-02T08:30:41.907Z,6208.00
2018-05-02T08:31:36.811Z,6144.00
2018-05-02T08:32:37.479Z,6080.00
2018-05-02T08:35:34.166Z,6188.00
2018-05-02T08:37:47.229Z,6336.00
2018-05-02T08:38:42.669Z,6284.00
2018-05-02T08:39:41.234Z,6316.00
2018-05-02T08:40:40.708Z,6580.00
2018-05-02T08:42:04.736Z,6664.00
2018-05-02T08:43:08.736Z,6936.00
2018-05-02T08:44:02.736Z,6752.00
2018-05-02T08:44:41.744Z,6792.00
2018-05-02T08:46:11.171Z,6824.00
2018-05-02T08:46:56.239Z,6744.00
2018-05-02T08:48:03.236Z,6728.00
2018-05-02T08:48:42.236Z,6680.00
2018-05-02T08:50:03.736Z,6776.00
2018-05-02T08:50:44.739Z,6924.00
2018-05-02T08:53:14.244Z,7324.00
2018-05-02T08:54:28.247Z,7280.00
2018-05-02T08:55:15.680Z,7304.00
2018-05-02T08:57:47.993Z,7588.00
2018-05-02T08:58:47.462Z,7520.00
2018-05-02T08:59:45.999Z,7288.00
2018-05-02T09:02:17.777Z,6880.00
2018-05-02T09:03:17.782Z,6920.00
2018-05-02T09:09:51.772Z,7652.00
2018-05-02T09:10:51.875Z,7520.00
2018-05-02T09:11:52.503Z,7208.00
2018-05-02T09:14:38.275Z,7528.00
2018-05-02T09:15:25.712Z,7380.00
2018-05-02T09:16:24.267Z,7236.00
2018-05-02T09:17:24.269Z,7140.00
2018-05-02T09:18:26.769Z,7092.00
2018-05-02T09:19:25.761Z,6960.00
2018-05-02T09:20:24.766Z,6976.00
2018-05-02T09:21:24.766Z,7120.00
2018-05-02T09:22:27.265Z,7240.00
2018-05-02T09:26:27.867Z,7468.00
2018-05-02T09:27:28.587Z,7208.00
2018-05-02T09:28:28.584Z,7208.00
2018-05-02T09:34:03.255Z,7264.00
2018-05-02T09:35:03.262Z,7252.00
2018-05-02T09:36:03.262Z,7312.00
2018-05-02T09:37:24.765Z,7368.00
2018-05-02T09:38:03.759Z,7492.00
2018-05-02T09:39:03.127Z,7712.00
2018-05-02T09:40:21.193Z,8064.00
2018-05-02T09:41:25.261Z,8156.00
2018-05-02T09:42:05.694Z,8184.00
2018-05-02T09:43:04.270Z,8596.00
2018-05-02T09:44:10.317Z,8260.00
2018-05-02T09:45:05.259Z,8140.00
2018-05-02T09:46:04.755Z,7996.00
2018-05-02T09:47:05.760Z,8320.00
2018-05-02T09:48:04.761Z,8240.00
2018-05-02T09:49:04.760Z,7836.00
2018-05-02T09:50:28.262Z,7908.00
2018-05-02T09:51:06.703Z,8172.00
2018-05-02T09:52:05.286Z,8220.00
2018-05-02T09:54:36.050Z,8080.00
2018-05-02T09:55:36.169Z,7928.00
2018-05-02T09:56:36.775Z,7812.00
2018-05-02T09:59:29.533Z,7944.00
2018-05-02T10:00:14.547Z,8172.00
2018-05-02T10:01:29.551Z,8244.00
2018-05-02T10:02:15.040Z,8260.00
2018-05-02T10:03:08.266Z,8296.00
2018-05-02T10:04:36.093Z,8392.00
2018-05-02T10:05:11.040Z,8464.00
2018-05-02T10:06:15.541Z,8492.00
2018-05-02T10:07:30.551Z,8644.00
2018-05-02T10:08:15.544Z,8872.00
2018-05-02T10:09:30.541Z,9084.00
2018-05-02T10:10:16.472Z,9148.00
2018-05-02T10:11:12.046Z,9148.00
2018-05-02T10:12:10.545Z,9056.00
2018-05-02T10:13:10.041Z,9072.00
2018-05-02T10:15:41.809Z,9192.00
2018-05-02T10:16:41.856Z,9220.00
2018-05-02T10:17:44.782Z,9312.00
2018-05-02T10:18:41.386Z,9264.00
2018-05-02T10:19:42.314Z,9228.00
2018-05-02T10:22:19.700Z,9252.00
2018-05-02T10:23:13.788Z,9192.00
2018-05-02T10:24:19.704Z,9236.00
2018-05-02T10:25:29.639Z,9316.00
2018-05-02T10:26:14.284Z,9352.00
2018-05-02T10:27:28.211Z,9456.00
2018-05-02T10:28:35.751Z,9532.00
2018-05-02T10:29:16.703Z,9660.00
2018-05-02T10:30:35.703Z,9856.00
2018-05-02T10:31:29.636Z,9756.00
2018-05-02T10:32:16.706Z,9464.00
2018-05-02T10:33:35.314Z,9396.00
2018-05-02T10:34:17.139Z,8964.00
2018-05-02T10:35:36.203Z,8968.00
2018-05-02T10:36:17.135Z,9344.00
2018-05-02T10:37:16.201Z,9652.00
2018-05-02T10:38:14.803Z,9860.00
2018-05-02T10:39:35.916Z,9892.00
2018-05-02T10:40:17.704Z,9836.00
2018-05-02T10:41:21.722Z,9536.00
2018-05-02T10:42:30.204Z,9200.00
2018-05-02T10:44:46.969Z,9200.00
2018-05-02T10:47:19.243Z,9020.00
2018-05-02T10:48:19.248Z,9012.00
2018-05-02T10:49:19.242Z,8808.00
2018-05-02T10:50:18.868Z,8624.00
2018-05-02T10:51:20.054Z,8464.00
2018-05-02T10:52:19.961Z,8364.00
2018-05-02T10:53:19.747Z,8260.00
2018-05-02T10:55:51.510Z,8132.00
2018-05-02T10:56:51.505Z,8168.00
2018-05-02T10:57:51.505Z,8312.00
2018-05-02T10:58:52.012Z,8380.00
2018-05-02T10:59:51.244Z,8476.00
2018-05-02T11:03:14.085Z,8512.00
2018-05-02T11:04:35.558Z,8384.00
2018-05-02T11:05:15.975Z,8244.00
2018-05-02T11:06:42.038Z,8312.00
2018-05-02T11:07:14.288Z,8368.00
2018-05-02T11:08:27.528Z,8404.00
2018-05-02T11:09:32.080Z,8520.00
2018-05-02T11:11:48.799Z,8592.00
2018-05-02T11:16:40.780Z,9032.00
2018-05-02T11:17:41.313Z,9268.00
2018-05-02T11:18:55.288Z,9400.00
2018-05-02T11:19:41.294Z,9324.00
2018-05-02T11:20:41.314Z,9388.00
2018-05-02T11:21:41.785Z,9832.00
2018-05-02T11:23:02.787Z,9864.00
2018-05-02T11:23:41.789Z,10016.00
2018-05-02T11:24:41.793Z,9548.00
2018-05-02T11:25:56.288Z,9368.00
2018-05-02T11:26:42.287Z,9004.00
2018-05-02T11:27:42.289Z,9148.00
2018-05-02T11:28:48.287Z,9712.00
2018-05-02T11:30:05.793Z,9816.00
2018-05-02T11:30:42.788Z,9936.00
2018-05-02T11:32:03.788Z,10240.00
2018-05-02T11:32:42.788Z,9756.00
2018-05-02T11:35:15.485Z,10328.00
2018-05-02T11:36:14.846Z,11332.00
2018-05-02T11:37:15.493Z,12552.00
2018-05-02T11:38:36.992Z,12132.00
2018-05-02T11:39:15.999Z,12824.00
2018-05-02T11:40:15.999Z,12472.00
2018-05-02T11:42:46.895Z,10716.00
2018-05-02T11:43:49.095Z,10228.00
2018-05-02T11:46:19.272Z,11316.00
2018-05-02T11:47:21.247Z,9448.00
2018-05-02T11:48:19.248Z,10072.00
2018-05-02T11:49:19.747Z,10420.00
2018-05-02T11:50:19.753Z,10328.00
2018-05-02T11:51:34.719Z,10312.00
2018-05-02T11:52:19.747Z,10140.00
2018-05-02T11:53:20.261Z,9928.00
2018-05-02T11:55:51.244Z,9536.00
2018-05-02T11:56:51.347Z,9332.00
2018-05-02T11:58:13.159Z,9204.00
2018-05-02T12:00:30.689Z,10552.00
2018-05-02T12:03:31.083Z,10260.00
2018-05-02T12:05:58.924Z,11024.00
2018-05-02T12:06:28.419Z,12076.00
2018-05-02T12:07:49.417Z,12556.00
2018-05-02T12:08:51.848Z,12616.00
2018-05-02T12:09:43.375Z,12180.00
2018-05-02T12:10:29.297Z,11968.00
2018-05-02T12:11:28.420Z,12116.00
2018-05-02T12:12:29.415Z,13660.00
2018-05-02T12:13:50.417Z,12796.00
2018-05-02T12:14:29.416Z,13756.00
2018-05-02T12:15:29.908Z,14128.00
2018-05-02T12:21:26.106Z,14264.00
2018-05-02T12:22:05.574Z,14320.00
2018-05-02T12:23:04.644Z,13280.00
2018-05-02T12:33:16.377Z,15904.00
2018-05-02T12:34:15.319Z,17280.00
2018-05-02T12:35:35.382Z,16384.00
2018-05-02T12:36:14.884Z,14876.00
2018-05-02T12:37:14.887Z,14364.00
2018-05-02T12:38:14.882Z,15220.00
2018-05-02T12:39:14.882Z,16480.00
2018-05-02T12:40:15.383Z,17248.00
2018-05-02T12:41:14.607Z,17920.00
2018-05-02T12:42:15.383Z,15296.00
2018-05-02T12:43:29.385Z,15436.00
2018-05-02T12:44:18.815Z,18240.00
2018-05-02T12:45:17.884Z,16448.00
2018-05-02T12:46:15.889Z,13848.00
2018-05-02T12:47:15.888Z,13880.00
2018-05-02T12:48:15.488Z,14748.00
2018-05-02T12:49:40.315Z,14916.00
2018-05-02T12:50:16.384Z,15328.00
2018-05-02T12:51:16.389Z,14284.00
2018-05-02T12:52:16.893Z,16064.00
2018-05-02T12:54:47.569Z,17792.00
2018-05-02T12:55:48.289Z,18240.00
2018-05-02T12:56:48.287Z,21760.00
2018-05-02T12:59:20.558Z,14904.00
2018-05-02T13:00:19.808Z,15016.00
2018-05-02T13:01:43.579Z,14624.00
2018-05-02T13:02:22.130Z,13696.00
2018-05-02T13:03:42.068Z,13956.00
2018-05-02T13:04:42.072Z,14848.00
2018-05-02T13:05:21.078Z,14196.00
2018-05-02T13:06:42.074Z,12336.00
2018-05-02T13:07:35.569Z,10864.00
2018-05-02T13:08:21.568Z,10972.00
2018-05-02T13:09:20.921Z,10112.00
2018-05-02T13:10:21.569Z,9904.00
2018-05-02T13:12:52.909Z,9480.00
2018-05-02T13:13:53.858Z,9420.00
2018-05-02T13:15:16.860Z,9504.00
2018-05-02T13:15:53.854Z,10488.00
2018-05-02T13:16:53.852Z,11512.00
2018-05-02T13:17:56.354Z,12144.00
2018-05-02T13:19:14.564Z,12500.00
2018-05-02T13:19:54.355Z,12808.00
2018-05-02T13:21:01.325Z,12396.00
2018-05-02T13:22:00.855Z,12844.00
2018-05-02T13:23:15.854Z,12168.00
2018-05-02T13:23:54.853Z,9532.00
2018-05-02T13:24:54.859Z,8768.00
2018-05-02T13:25:54.462Z,9492.00
2018-05-02T13:28:40.728Z,8232.00
2018-05-02T13:29:42.171Z,8272.00
2018-05-02T13:30:27.237Z,8204.00
2018-05-02T13:31:28.171Z,8364.00
2018-05-02T13:32:29.238Z,8668.00
2018-05-02T13:33:27.238Z,9460.00
2018-05-02T13:34:50.669Z,9088.00
2018-05-02T13:35:26.793Z,8908.00
2018-05-02T13:38:20.059Z,10508.00
2018-05-02T13:40:51.603Z,11440.00
2018-05-02T13:41:30.610Z,12084.00
2018-05-02T13:42:30.638Z,13932.00
2018-05-02T13:45:23.405Z,19104.00
2018-05-02T13:46:03.844Z,19680.00
2018-05-02T13:47:08.428Z,18976.00
2018-05-02T13:49:34.188Z,16576.00
2018-05-02T13:50:34.181Z,14672.00
2018-05-02T13:51:34.181Z,12996.00
2018-05-02T13:55:51.678Z,11068.00
2018-05-02T13:56:37.681Z,11004.00
2018-05-02T13:57:58.689Z,10980.00
2018-05-02T13:58:59.176Z,10524.00
2018-05-02T14:02:09.741Z,13108.00
2018-05-02T14:05:02.267Z,14260.00
2018-05-02T14:05:41.273Z,14224.00
2018-05-02T14:06:43.776Z,16224.00
2018-05-02T14:07:41.779Z,17888.00
2018-05-02T14:08:41.773Z,18112.00
2018-05-02T14:09:41.773Z,15176.00
2018-05-02T14:10:41.783Z,13800.00
2018-05-02T14:12:02.404Z,11856.00
2018-05-02T14:12:42.275Z,9896.00
2018-05-02T14:13:44.273Z,8832.00
2018-05-02T14:14:42.273Z,7872.00
2018-05-02T14:15:41.883Z,7804.00
2018-05-02T14:16:42.776Z,7952.00
2018-05-02T14:17:42.782Z,7688.00
2018-05-02T14:18:42.792Z,7592.00
2018-05-02T14:19:43.273Z,7908.00
2018-05-02T14:22:35.672Z,12036.00
2018-05-02T14:23:40.178Z,14268.00
2018-05-02T14:24:14.678Z,16224.00
2018-05-02T14:25:15.179Z,26016.00
2018-05-02T14:26:17.181Z,31104.00
2018-05-02T14:27:35.518Z,27776.00
2018-05-02T14:28:36.178Z,26560.00
2018-05-02T14:29:21.679Z,25184.00
2018-05-02T14:31:48.519Z,24544.00
2018-05-02T14:32:48.117Z,23968.00
2018-05-02T14:33:47.141Z,24000.00
2018-05-02T14:36:18.154Z,26240.00
2018-05-02T14:37:18.906Z,23584.00
2018-05-02T14:38:18.396Z,22912.00
2018-05-02T14:39:21.418Z,20704.00
2018-05-02T14:40:19.397Z,21600.00
2018-05-02T14:41:40.396Z,20480.00
2018-05-02T14:42:19.395Z,18240.00
2018-05-02T14:43:19.896Z,19104.00
2018-05-02T14:44:19.895Z,20320.00
2018-05-02T14:46:51.482Z,11948.00
2018-05-02T14:47:51.440Z,12564.00
2018-05-02T14:48:51.441Z,13836.00
2018-05-02T14:49:51.938Z,19616.00
2018-05-02T14:50:51.194Z,15024.00
2018-05-02T14:51:51.940Z,15856.00
2018-05-02T14:53:16.372Z,15388.00
2018-05-02T14:53:51.542Z,14104.00
2018-05-02T14:56:44.101Z,14072.00
2018-05-02T14:57:46.824Z,12052.00
2018-05-02T14:58:23.824Z,12912.00
2018-05-02T14:59:25.793Z,12676.00
2018-05-02T15:01:26.334Z,12048.00
2018-05-02T15:02:24.331Z,13688.00
2018-05-02T15:03:45.824Z,13124.00
2018-05-02T15:05:56.710Z,17184.00
2018-05-02T15:08:49.260Z,11768.00
2018-05-02T15:10:59.775Z,10012.00
2018-05-02T15:11:59.153Z,11048.00
2018-05-02T15:13:21.784Z,10560.00
2018-05-02T15:15:31.548Z,10324.00
2018-05-02T15:16:31.550Z,10288.00
2018-05-02T15:20:34.774Z,8800.00
2018-05-02T15:21:55.785Z,7320.00
2018-05-02T15:22:34.782Z,7704.00